Time;durP1;ratioP1;P1;durP2;ratioP2;P2;SDS_P1;SDS_P2;PMS_P1;PMS_P2;Temp;Humidity;BMP_temperature;BMP_pressure;BME280_temperature;BME280_humidity;BME280_pressure;Samples;Min_cycle;Max_cycle;Signal;HPM_P1;HPM_P2
2021/12/10 00:01:52;;;;;;;18.95;9.10;;;12.20;51.60;;;;;;20794354;28;20061;-79
2021/12/10 00:12:03;;;;;;;15.25;8.63;;;12.20;51.50;;;;;;20811772;28;20038;-79
2021/12/10 00:22:12;;;;;;;16.23;10.07;;;12.20;51.50;;;;;;20794204;28;20045;-80
2021/12/10 00:32:19;;;;;;;20.17;9.40;;;12.10;51.50;;;;;;20799084;28;20390;-80
2021/12/10 00:42:27;;;;;;;21.15;10.02;;;12.10;51.50;;;;;;20826171;28;20045;-80
2021/12/10 00:52:27;;;;;;;17.02;8.32;;;12.10;51.50;;;;;;20824705;28;20132;-79
2021/12/10 01:02:28;;;;;;;17.38;8.63;;;12.10;51.50;;;;;;20823138;28;20119;-81
2021/12/10 01:12:37;;;;;;;17.63;9.70;;;12.10;51.50;;;;;;20839637;28;20036;-80
2021/12/10 01:33:04;;;;;;;17.70;8.50;;;12.10;51.50;;;;;;20837644;28;20037;-81
2021/12/10 01:43:07;;;;;;;16.83;9.43;;;12.00;51.40;;;;;;20820138;28;20052;-80
2021/12/10 01:53:09;;;;;;;15.85;9.23;;;12.00;51.40;;;;;;20820193;28;20045;-79
2021/12/10 02:03:10;;;;;;;15.90;8.88;;;12.00;51.40;;;;;;20818521;28;20069;-80
2021/12/10 02:13:11;;;;;;;17.77;9.30;;;12.00;51.40;;;;;;20818944;28;20032;-80
2021/12/10 02:23:11;;;;;;;14.35;7.95;;;12.00;51.50;;;;;;20834195;28;20044;-81
2021/12/10 02:33:12;;;;;;;15.73;9.10;;;12.00;51.60;;;;;;20798623;28;20476;-81
2021/12/10 02:43:13;;;;;;;13.10;7.85;;;12.00;51.60;;;;;;20816584;28;20033;-80
2021/12/10 02:53:19;;;;;;;15.75;8.25;;;12.00;51.70;;;;;;20815828;28;20033;-79
2021/12/10 03:03:20;;;;;;;12.15;7.30;;;11.90;51.70;;;;;;20814128;28;20053;-79
2021/12/10 03:13:21;;;;;;;15.48;7.88;;;12.00;51.80;;;;;;20813312;28;20035;-79
2021/12/10 03:23:21;;;;;;;13.60;6.97;;;11.90;51.80;;;;;;20812853;28;20128;-80
2021/12/10 03:33:22;;;;;;;14.00;7.38;;;11.90;51.80;;;;;;20796864;28;20539;-79
2021/12/10 03:43:27;;;;;;;11.10;6.68;;;11.90;52.00;;;;;;20812531;28;20048;-79
2021/12/10 03:53:28;;;;;;;12.25;6.85;;;11.90;52.00;;;;;;20796052;28;20033;-81
2021/12/10 04:03:30;;;;;;;11.80;6.60;;;11.90;52.10;;;;;;20795335;28;20033;-80
2021/12/10 04:13:31;;;;;;;13.68;6.15;;;11.90;52.10;;;;;;20843395;28;20053;-80
2021/12/10 04:23:31;;;;;;;12.48;5.75;;;11.90;52.20;;;;;;20859977;28;20045;-80
2021/12/10 04:33:32;;;;;;;11.50;6.60;;;11.90;52.20;;;;;;20842665;28;20022;-79
2021/12/10 04:43:35;;;;;;;9.90;5.78;;;11.90;52.20;;;;;;20824528;28;20038;-79
2021/12/10 04:53:36;;;;;;;12.00;5.95;;;11.80;52.20;;;;;;20842417;28;20487;-80
2021/12/10 05:03:36;;;;;;;10.23;6.23;;;11.80;52.30;;;;;;20823186;28;20037;-79
2021/12/10 05:13:41;;;;;;;9.57;6.05;;;11.90;52.20;;;;;;20823245;28;20314;-80
2021/12/10 05:23:41;;;;;;;13.52;6.28;;;12.70;50.80;;;;;;20821181;28;20037;-80
2021/12/10 05:33:42;;;;;;;9.35;5.25;;;13.60;48.80;;;;;;20821600;28;20053;-79
2021/12/10 05:43:43;;;;;;;10.60;5.45;;;14.60;46.90;;;;;;20836629;28;20041;-81
2021/12/10 05:53:44;;;;;;;7.60;4.97;;;15.40;45.10;;;;;;20819646;28;20105;-79
2021/12/10 06:03:51;;;;;;;10.57;5.90;;;15.80;44.00;;;;;;20818590;28;20045;-80
2021/12/10 06:13:52;;;;;;;8.30;5.20;;;16.00;43.40;;;;;;20818477;28;20040;-80
2021/12/10 06:23:53;;;;;;;8.50;5.38;;;16.00;43.00;;;;;;20834839;28;20472;-80
2021/12/10 06:33:55;;;;;;;11.63;5.63;;;16.00;42.90;;;;;;20816304;28;20029;-80
2021/12/10 06:43:55;;;;;;;11.35;5.80;;;15.70;43.20;;;;;;20826496;28;20056;-79
2021/12/10 06:53:57;;;;;;;9.07;4.80;;;14.80;44.50;;;;;;20749084;28;20022;-81
2021/12/10 07:03:58;;;;;;;8.18;4.38;;;14.00;46.70;;;;;;20803976;28;20064;-82
2021/12/10 07:13:59;;;;;;;8.30;4.60;;;13.40;47.40;;;;;;20828525;28;20464;-81
2021/12/10 07:24:02;;;;;;;9.63;4.65;;;12.90;48.50;;;;;;20830849;28;20034;-81
2021/12/10 07:34:03;;;;;;;9.73;5.72;;;12.60;49.40;;;;;;20811732;28;20079;-80
2021/12/10 07:44:04;;;;;;;9.98;4.68;;;12.40;50.00;;;;;;20791822;28;20480;-74
2021/12/10 07:54:04;;;;;;;10.48;4.38;;;12.30;50.50;;;;;;20740632;28;20472;-75
2021/12/10 08:04:07;;;;;;;7.90;4.25;;;12.20;50.70;;;;;;20821016;28;20583;-78
2021/12/10 08:14:07;;;;;;;9.23;4.72;;;12.20;50.90;;;;;;20779955;28;20045;-74
2021/12/10 08:24:08;;;;;;;8.33;4.53;;;12.20;51.00;;;;;;20804927;28;20045;-75
2021/12/10 08:34:09;;;;;;;9.98;4.95;;;12.20;51.20;;;;;;20805518;28;20280;-75
2021/12/10 08:44:10;;;;;;;7.78;4.30;;;12.10;51.20;;;;;;20801426;28;20403;-76
2021/12/10 08:54:13;;;;;;;9.20;5.60;;;12.10;51.40;;;;;;20811881;28;20478;-76
2021/12/10 09:04:15;;;;;;;7.85;4.30;;;12.90;50.10;;;;;;20818821;28;20125;-77
2021/12/10 09:14:17;;;;;;;8.38;4.20;;;13.50;48.70;;;;;;20816551;28;20041;-75
2021/12/10 09:24:20;;;;;;;7.20;4.20;;;13.20;49.00;;;;;;20831062;28;20045;-75
2021/12/10 09:34:21;;;;;;;7.00;3.65;;;12.80;49.70;;;;;;20831480;28;20116;-74
2021/12/10 09:44:22;;;;;;;6.28;3.70;;;12.40;50.40;;;;;;20816633;28;20434;-77
2021/12/10 09:54:24;;;;;;;7.18;3.92;;;12.20;51.00;;;;;;20818549;28;20058;-79
2021/12/10 10:04:26;;;;;;;8.25;4.30;;;12.00;51.50;;;;;;20849557;28;20041;-77
2021/12/10 10:14:27;;;;;;;5.53;3.17;;;11.90;51.80;;;;;;20800321;28;20377;-78
2021/12/10 10:24:30;;;;;;;5.32;3.35;;;11.90;52.10;;;;;;20792301;28;20164;-76
2021/12/10 10:34:31;;;;;;;9.82;4.43;;;12.60;50.80;;;;;;20763538;28;20412;-76
2021/12/10 10:44:32;;;;;;;8.23;4.03;;;13.90;48.40;;;;;;20830089;28;20388;-79
2021/12/10 10:54:35;;;;;;;6.72;3.97;;;15.10;46.00;;;;;;20810472;28;20044;-79
2021/12/10 11:04:46;;;;;;;7.10;3.70;;;15.70;44.30;;;;;;20766431;28;20060;-75
2021/12/10 11:14:49;;;;;;;6.85;3.42;;;16.00;43.40;;;;;;21176794;23;20048;-79
2021/12/10 11:24:56;;;;;;;6.15;3.28;;;16.10;43.10;;;;;;20846124;28;20076;-83
2021/12/10 11:35:05;;;;;;;5.47;3.90;;;16.10;42.90;;;;;;20871695;28;20037;-81
2021/12/10 11:45:30;;;;;;;6.25;3.33;;;15.70;43.40;;;;;;20904887;28;20093;-82
2021/12/10 11:55:33;;;;;;;7.10;3.60;;;14.80;44.80;;;;;;20867140;28;20037;-83
2021/12/10 12:05:41;;;;;;;6.97;3.40;;;14.00;46.30;;;;;;20859807;28;20041;-82
2021/12/10 12:15:57;;;;;;;6.63;3.80;;;13.40;47.60;;;;;;20853116;28;20033;-80
2021/12/10 12:26:09;;;;;;;5.27;3.27;;;13.50;47.90;;;;;;20829264;28;20132;-84
2021/12/10 12:36:13;;;;;;;5.10;2.95;;;14.20;46.80;;;;;;20843437;28;20033;-77
2021/12/10 12:46:14;;;;;;;8.30;4.30;;;15.00;45.40;;;;;;20877588;28;20041;-75
2021/12/10 12:56:14;;;;;;;7.30;4.25;;;15.60;44.20;;;;;;20895516;28;20411;-79
2021/12/10 13:06:50;;;;;;;5.90;3.00;;;15.30;44.50;;;;;;20893721;28;20110;-74
2021/12/10 13:16:54;;;;;;;7.18;3.63;;;14.60;45.60;;;;;;20867306;28;20379;-78
2021/12/10 13:26:57;;;;;;;5.95;3.70;;;14.00;46.80;;;;;;20848205;28;20069;-74
2021/12/10 13:37:01;;;;;;;5.65;3.35;;;13.50;47.70;;;;;;20869599;28;20059;-79
2021/12/10 13:47:09;;;;;;;4.95;2.78;;;13.80;47.50;;;;;;20866120;28;20048;-78
2021/12/10 13:57:11;;;;;;;5.63;3.50;;;14.60;46.30;;;;;;20883914;28;20048;-76
2021/12/10 14:07:13;;;;;;;4.78;2.90;;;15.30;45.00;;;;;;20872591;28;20041;-78
2021/12/10 14:17:14;;;;;;;7.53;4.43;;;15.80;44.20;;;;;;20899591;28;20493;-80
2021/12/10 14:27:24;;;;;;;13.40;6.43;;;15.20;44.40;;;;;;20888437;28;20044;-80
2021/12/10 14:37:25;;;;;;;13.00;6.72;;;14.70;45.40;;;;;;20857362;28;20033;-78
2021/12/10 14:47:25;;;;;;;9.50;4.93;;;14.10;46.50;;;;;;20850078;28;20057;-80
2021/12/10 14:57:46;;;;;;;11.52;5.95;;;13.70;47.70;;;;;;20839449;28;20115;-76
2021/12/10 15:07:47;;;;;;;9.32;5.05;;;13.30;48.70;;;;;;20840464;28;20041;-74
2021/12/10 15:17:47;;;;;;;11.40;5.55;;;13.00;49.30;;;;;;20824158;28;20072;-73
2021/12/10 15:27:51;;;;;;;9.25;4.13;;;12.90;49.80;;;;;;20823335;28;20124;-74
2021/12/10 15:38:05;;;;;;;8.45;4.70;;;12.80;50.20;;;;;;20853408;28;20452;-75
2021/12/10 15:48:06;;;;;;;7.75;4.22;;;13.00;50.10;;;;;;20919709;28;20040;-83
2021/12/10 15:58:18;;;;;;;7.03;3.58;;;13.90;48.60;;;;;;20884034;28;20053;-81
2021/12/10 16:08:19;;;;;;;7.45;4.38;;;14.90;46.90;;;;;;20815238;28;20067;-76
2021/12/10 16:18:22;;;;;;;7.72;4.20;;;15.70;45.40;;;;;;20807524;28;20033;-77
2021/12/10 16:28:22;;;;;;;7.05;3.80;;;16.20;44.30;;;;;;20850020;28;20156;-78
2021/12/10 16:38:25;;;;;;;7.22;4.15;;;16.50;43.60;;;;;;20835564;28;20120;-80
2021/12/10 16:48:29;;;;;;;8.15;4.88;;;16.00;44.10;;;;;;20834356;28;20041;-80
2021/12/10 16:58:29;;;;;;;6.88;4.05;;;15.10;45.50;;;;;;20800552;28;20033;-82
2021/12/10 17:08:31;;;;;;;8.27;4.78;;;14.30;46.80;;;;;;20835891;28;20041;-80
2021/12/10 17:18:33;;;;;;;7.32;3.75;;;13.70;48.00;;;;;;20874676;28;20037;-79
2021/12/10 17:28:35;;;;;;;8.57;4.75;;;13.30;49.10;;;;;;20856086;28;20119;-81
2021/12/10 17:38:38;;;;;;;10.55;4.97;;;12.90;49.90;;;;;;20837420;28;20033;-79
2021/12/10 17:48:42;;;;;;;10.20;5.70;;;12.80;50.50;;;;;;20862757;28;20122;-82
2021/12/10 17:58:43;;;;;;;8.02;5.15;;;12.80;50.80;;;;;;20894612;28;20079;-79
2021/12/10 18:08:46;;;;;;;8.18;5.38;;;12.70;50.90;;;;;;20879547;28;20041;-84
2021/12/10 18:18:50;;;;;;;13.60;6.35;;;12.70;51.10;;;;;;20828144;28;20041;-79
2021/12/10 18:28:56;;;;;;;9.18;5.15;;;12.80;51.10;;;;;;20813103;28;20116;-83
2021/12/10 18:39:07;;;;;;;11.27;6.15;;;12.80;51.80;;;;;;20921322;28;20049;-77
2021/12/10 18:49:08;;;;;;;8.98;4.88;;;12.80;51.20;;;;;;20910677;28;20033;-81
2021/12/10 18:59:13;;;;;;;11.40;5.10;;;12.70;51.20;;;;;;20880860;28;20044;-80
2021/12/10 19:09:21;;;;;;;10.10;4.95;;;12.80;51.20;;;;;;20912555;28;20298;-79
2021/12/10 19:19:26;;;;;;;10.38;5.60;;;12.80;51.30;;;;;;20910686;28;20043;-80
2021/12/10 19:29:29;;;;;;;7.75;4.47;;;12.70;51.30;;;;;;20911543;28;20076;-80
2021/12/10 19:39:34;;;;;;;9.50;5.15;;;12.70;51.30;;;;;;20890918;28;20048;-79
2021/12/10 19:49:54;;;;;;;12.75;5.60;;;12.70;51.40;;;;;;20909782;28;20075;-79
2021/12/10 20:00:37;;;;;;;9.10;5.03;;;12.70;51.40;;;;;;20908685;28;20035;-79
2021/12/10 20:10:42;;;;;;;8.88;5.72;;;12.70;51.40;;;;;;20846123;28;20053;-79
2021/12/10 20:21:01;;;;;;;7.80;4.57;;;12.70;51.50;;;;;;20911276;28;20383;-78
2021/12/10 20:31:05;;;;;;;11.75;5.00;;;12.60;51.40;;;;;;20880412;28;20044;-85
2021/12/10 20:41:13;;;;;;;13.00;6.03;;;12.60;51.50;;;;;;20829151;28;20555;-84
2021/12/10 20:51:27;;;;;;;9.27;5.53;;;12.60;51.50;;;;;;20823314;28;20375;-85
2021/12/10 21:01:35;;;;;;;9.45;5.38;;;12.60;51.50;;;;;;20831511;28;20033;-85
2021/12/10 21:11:45;;;;;;;11.00;5.82;;;12.60;51.60;;;;;;20843591;28;20033;-83
2021/12/10 21:21:50;;;;;;;10.18;5.38;;;12.60;51.60;;;;;;20893005;28;20139;-83
2021/12/10 21:31:55;;;;;;;10.07;5.13;;;12.60;51.70;;;;;;20895505;28;20029;-84
2021/12/10 21:42:09;;;;;;;13.53;6.57;;;12.60;51.70;;;;;;20827325;28;20045;-83
2021/12/10 21:52:15;;;;;;;8.77;5.25;;;12.50;51.70;;;;;;20853382;28;20086;-84
2021/12/10 22:02:32;;;;;;;14.40;6.37;;;12.50;51.70;;;;;;20900012;28;20048;-83
2021/12/10 22:12:45;;;;;;;13.10;6.10;;;12.50;51.80;;;;;;20920367;28;20050;-83
2021/12/10 22:22:47;;;;;;;10.85;5.55;;;12.50;51.80;;;;;;20919412;28;20071;-84
2021/12/10 22:32:59;;;;;;;11.45;6.75;;;12.50;51.90;;;;;;20903209;28;20043;-84
2021/12/10 22:43:07;;;;;;;8.98;5.18;;;12.50;52.00;;;;;;20917226;28;20041;-84
2021/12/10 22:53:09;;;;;;;8.85;5.10;;;12.40;52.00;;;;;;20901292;28;20529;-83
2021/12/10 23:03:37;;;;;;;11.13;5.20;;;12.40;52.00;;;;;;20916702;28;20041;-83
2021/12/10 23:13:43;;;;;;;11.07;6.45;;;12.40;52.00;;;;;;20910657;28;20032;-84
2021/12/10 23:24:06;;;;;;;14.37;5.97;;;12.40;52.10;;;;;;20882968;28;20044;-83
2021/12/10 23:34:10;;;;;;;13.52;5.57;;;12.40;52.10;;;;;;20915324;28;20048;-84
2021/12/10 23:44:28;;;;;;;10.43;5.20;;;12.40;52.10;;;;;;20913622;28;20120;-84
2021/12/10 23:54:35;;;;;;;8.32;4.85;;;12.30;52.10;;;;;;20897960;28;20040;-84
